createdAt,value
2022-07-28T00:01:37.136Z,14.19
2022-07-28T00:04:07.050Z,14.18
2022-07-28T00:06:36.913Z,14.16
2022-07-28T00:09:07.376Z,14.12
2022-07-28T00:14:06.942Z,14.13
2022-07-28T00:16:36.978Z,14.12
2022-07-28T00:19:06.984Z,14.08
2022-07-28T00:21:37.005Z,14.09
2022-07-28T00:24:07.196Z,14.08
2022-07-28T00:26:37.378Z,14.06
2022-07-28T00:29:07.314Z,14.03
2022-07-28T00:31:36.946Z,14.04
2022-07-28T00:39:07.415Z,14.01
2022-07-28T00:49:07.174Z,14.00
2022-07-28T00:51:39.122Z,14.01
2022-07-28T00:59:07.134Z,13.99
2022-07-28T01:01:37.246Z,14.00
2022-07-28T01:04:07.357Z,13.99
2022-07-28T01:09:17.872Z,13.95
2022-07-28T01:11:44.162Z,13.96
2022-07-28T01:14:09.920Z,13.95
2022-07-28T01:16:43.654Z,13.94
2022-07-28T01:19:15.522Z,13.90
2022-07-28T01:24:18.607Z,13.89
2022-07-28T01:29:20.878Z,13.86
2022-07-28T01:31:40.032Z,13.87
2022-07-28T01:34:10.836Z,13.86
2022-07-28T01:36:42.159Z,13.84
2022-07-28T01:39:08.257Z,13.81
2022-07-28T01:41:39.702Z,13.80
2022-07-28T01:44:12.526Z,13.79
2022-07-28T01:46:38.212Z,13.78
2022-07-28T01:49:09.719Z,13.76
2022-07-28T01:56:40.464Z,13.74
2022-07-28T01:59:08.889Z,13.70
2022-07-28T02:01:42.300Z,13.71
2022-07-28T02:04:09.031Z,13.69
2022-07-28T02:06:39.626Z,13.67
2022-07-28T02:09:10.350Z,13.63
2022-07-28T02:11:40.345Z,13.61
2022-07-28T02:14:10.175Z,13.59
2022-07-28T02:16:40.830Z,13.56
2022-07-28T02:19:08.039Z,13.50
2022-07-28T02:24:09.663Z,13.49
2022-07-28T02:26:43.304Z,13.47
2022-07-28T02:29:22.503Z,13.44
2022-07-28T02:31:43.213Z,13.43
2022-07-28T02:34:09.871Z,13.42
2022-07-28T02:36:41.730Z,13.40
2022-07-28T02:39:14.108Z,13.36
2022-07-28T02:44:15.814Z,13.35
2022-07-28T02:46:42.288Z,13.34
2022-07-28T02:49:11.518Z,13.30
2022-07-28T02:54:08.160Z,13.29
2022-07-28T02:56:40.588Z,13.27
2022-07-28T02:59:09.218Z,13.23
2022-07-28T03:01:37.867Z,13.21
2022-07-28T03:04:08.829Z,13.19
2022-07-28T03:06:37.532Z,13.16
2022-07-28T03:09:07.820Z,13.12
2022-07-28T03:11:54.385Z,13.10
2022-07-28T03:14:07.045Z,13.08
2022-07-28T03:16:37.059Z,13.05
2022-07-28T03:19:07.139Z,13.01
2022-07-28T03:21:40.278Z,13.00
2022-07-28T03:24:09.333Z,12.98
2022-07-28T03:26:42.035Z,12.97
2022-07-28T03:29:09.165Z,12.93
2022-07-28T03:34:09.895Z,12.92
2022-07-28T03:36:43.149Z,12.91
2022-07-28T03:39:10.870Z,12.88
2022-07-28T03:41:38.151Z,12.89
2022-07-28T03:44:09.447Z,12.87
2022-07-28T03:46:43.528Z,12.86
2022-07-28T03:49:07.615Z,12.83
2022-07-28T03:51:37.128Z,12.84
2022-07-28T03:54:07.083Z,12.83
2022-07-28T03:56:37.014Z,12.82
2022-07-28T03:59:07.072Z,12.80
2022-07-28T04:01:37.388Z,12.82
2022-07-28T04:09:07.250Z,12.78
2022-07-28T04:11:37.040Z,12.79
2022-07-28T04:14:07.364Z,12.78
2022-07-28T04:16:37.036Z,12.76
2022-07-28T04:19:07.367Z,12.73
2022-07-28T04:21:37.068Z,12.74
2022-07-28T04:24:08.470Z,12.73
2022-07-28T04:26:37.285Z,12.72
2022-07-28T04:29:06.996Z,12.70
2022-07-28T04:31:37.218Z,12.71
2022-07-28T04:34:07.216Z,12.70
2022-07-28T04:39:07.576Z,12.67
2022-07-28T04:41:37.360Z,12.69
2022-07-28T04:44:09.655Z,12.70
2022-07-28T04:46:37.196Z,12.71
2022-07-28T04:49:07.265Z,12.70
2022-07-28T04:51:37.237Z,12.73
2022-07-28T04:54:07.022Z,12.76
2022-07-28T04:56:37.055Z,12.78
2022-07-28T04:59:07.199Z,12.83
2022-07-28T05:01:38.323Z,12.93
2022-07-28T05:04:07.445Z,13.00
2022-07-28T05:06:37.015Z,13.08
2022-07-28T05:09:07.064Z,13.14
2022-07-28T05:11:37.109Z,13.26
2022-07-28T05:14:08.144Z,13.38
2022-07-28T05:16:37.417Z,13.51
2022-07-28T05:19:07.021Z,13.65
2022-07-28T05:21:37.285Z,13.81
2022-07-28T05:24:07.321Z,13.97
2022-07-28T05:26:37.247Z,14.11
2022-07-28T05:29:07.429Z,14.24
2022-07-28T05:31:37.120Z,14.40
2022-07-28T05:34:07.178Z,14.55
2022-07-28T05:36:37.090Z,14.72
2022-07-28T05:39:07.193Z,14.85
2022-07-28T05:41:37.214Z,15.01
2022-07-28T05:44:07.038Z,15.14
2022-07-28T05:46:37.211Z,15.29
2022-07-28T05:49:07.271Z,15.39
2022-07-28T05:51:41.681Z,15.58
2022-07-28T05:54:07.090Z,15.74
2022-07-28T05:56:37.083Z,15.91
2022-07-28T05:59:09.198Z,16.05
2022-07-28T06:01:37.363Z,16.24
2022-07-28T06:04:27.297Z,16.44
2022-07-28T06:06:37.173Z,16.65
2022-07-28T06:09:07.092Z,16.82
2022-07-28T06:11:37.223Z,17.08
2022-07-28T06:14:07.148Z,17.32
2022-07-28T06:16:37.877Z,17.56
2022-07-28T06:19:07.222Z,17.70
2022-07-28T06:21:37.175Z,17.89
2022-07-28T06:24:07.383Z,18.01
2022-07-28T06:26:44.022Z,18.12
2022-07-28T06:29:07.044Z,18.18
2022-07-28T06:31:38.148Z,18.28
2022-07-28T06:34:07.112Z,18.36
2022-07-28T06:36:37.074Z,18.43
2022-07-28T06:39:07.444Z,18.48
2022-07-28T06:41:40.463Z,18.59
2022-07-28T06:44:08.423Z,18.73
2022-07-28T06:46:37.109Z,18.87
2022-07-28T06:49:07.253Z,18.96
2022-07-28T06:51:38.424Z,19.10
2022-07-28T06:54:11.228Z,19.24
2022-07-28T06:56:37.133Z,19.36
2022-07-28T06:59:07.130Z,19.39
2022-07-28T07:01:37.070Z,19.50
2022-07-28T07:04:07.268Z,19.62
2022-07-28T07:06:37.124Z,19.76
2022-07-28T07:09:07.085Z,19.87
2022-07-28T07:11:37.204Z,19.98
2022-07-28T07:14:07.488Z,20.08
2022-07-28T07:16:37.455Z,20.16
2022-07-28T07:19:07.239Z,20.25
2022-07-28T07:21:37.435Z,20.38
2022-07-28T07:24:08.118Z,20.49
2022-07-28T07:26:37.568Z,20.58
2022-07-28T07:29:08.208Z,20.65
2022-07-28T07:31:38.619Z,20.72
2022-07-28T07:34:07.252Z,20.76
2022-07-28T07:36:37.183Z,20.79
2022-07-28T07:39:07.107Z,20.80
2022-07-28T07:41:37.182Z,20.88
2022-07-28T07:44:08.841Z,20.98
2022-07-28T07:46:38.666Z,21.10
2022-07-28T07:49:07.219Z,21.17
2022-07-28T07:51:37.112Z,21.27
2022-07-28T07:54:07.205Z,21.33
2022-07-28T07:56:37.235Z,21.39
2022-07-28T07:59:07.368Z,21.42
2022-07-28T08:01:37.145Z,21.47
2022-07-28T08:04:07.137Z,21.50
2022-07-28T08:06:37.251Z,21.51
2022-07-28T08:09:07.114Z,21.48
2022-07-28T08:11:37.267Z,21.43
2022-07-28T08:14:07.242Z,21.38
2022-07-28T08:16:37.402Z,21.32
2022-07-28T08:19:07.140Z,21.24
2022-07-28T08:21:37.229Z,21.19
2022-07-28T08:24:07.461Z,21.20
2022-07-28T08:26:37.092Z,21.31
2022-07-28T08:29:08.459Z,21.89
2022-07-28T08:31:37.157Z,23.02
2022-07-28T08:34:31.248Z,24.27
2022-07-28T08:36:37.287Z,25.86
2022-07-28T08:39:07.102Z,27.14
2022-07-28T08:41:49.397Z,28.19
2022-07-28T08:44:09.583Z,28.85
2022-07-28T08:46:37.660Z,29.07
2022-07-28T08:49:08.537Z,29.24
2022-07-28T08:51:39.759Z,29.35
2022-07-28T08:54:09.138Z,29.08
2022-07-28T08:56:40.772Z,28.60
2022-07-28T08:59:07.434Z,27.72
2022-07-28T09:01:39.466Z,27.01
2022-07-28T09:04:07.657Z,26.32
2022-07-28T09:06:41.737Z,25.79
2022-07-28T09:09:08.701Z,25.31
2022-07-28T09:11:37.907Z,24.65
2022-07-28T09:14:07.496Z,23.85
2022-07-28T09:16:37.410Z,23.72
2022-07-28T09:19:07.213Z,23.15
2022-07-28T09:21:37.681Z,22.97
2022-07-28T09:24:07.204Z,22.89
2022-07-28T09:26:37.115Z,22.76
2022-07-28T09:29:07.543Z,22.42
2022-07-28T09:31:55.566Z,22.36
2022-07-28T09:34:07.414Z,22.23
2022-07-28T09:36:39.060Z,22.07
2022-07-28T09:39:07.394Z,21.86
2022-07-28T09:41:47.562Z,21.67
2022-07-28T09:44:17.324Z,21.49
2022-07-28T09:46:37.650Z,21.40
2022-07-28T09:49:07.330Z,21.17
2022-07-28T09:51:38.077Z,21.18
2022-07-28T09:54:09.789Z,21.10
2022-07-28T09:56:38.259Z,21.12
2022-07-28T09:59:07.446Z,21.01
2022-07-28T10:01:51.877Z,21.11
2022-07-28T10:04:07.185Z,21.14
2022-07-28T10:06:39.654Z,21.13
2022-07-28T10:09:11.628Z,20.88
2022-07-28T10:11:41.621Z,20.69
2022-07-28T10:14:07.539Z,20.72
2022-07-28T10:16:42.355Z,20.82
2022-07-28T10:19:07.544Z,20.86
2022-07-28T10:21:41.993Z,20.95
2022-07-28T10:24:08.692Z,21.02
2022-07-28T10:26:41.769Z,21.07
2022-07-28T10:29:12.681Z,21.08
2022-07-28T10:31:45.318Z,21.06
2022-07-28T10:36:37.503Z,21.02
2022-07-28T10:39:12.386Z,20.88
2022-07-28T10:46:37.644Z,20.81
2022-07-28T10:49:08.031Z,20.73
2022-07-28T10:51:54.120Z,20.80
2022-07-28T10:54:17.802Z,20.87
2022-07-28T10:56:48.310Z,20.93
2022-07-28T10:59:20.929Z,21.00
2022-07-28T11:01:49.640Z,21.11
2022-07-28T11:04:07.293Z,21.19
2022-07-28T11:06:39.115Z,21.31
2022-07-28T11:09:21.747Z,21.35
2022-07-28T11:11:42.269Z,21.39
2022-07-28T11:14:28.623Z,21.56
2022-07-28T11:16:37.293Z,21.48
2022-07-28T11:19:41.930Z,21.29
2022-07-28T11:21:51.144Z,21.52
2022-07-28T11:24:07.325Z,21.55
2022-07-28T11:26:37.692Z,21.59
2022-07-28T11:31:54.792Z,21.57
2022-07-28T11:34:07.936Z,21.56
2022-07-28T11:36:56.998Z,21.52
2022-07-28T11:39:20.849Z,21.16
2022-07-28T11:41:37.411Z,21.17
2022-07-28T11:44:22.924Z,21.09
2022-07-28T11:46:38.697Z,21.03
2022-07-28T11:49:16.866Z,21.04
2022-07-28T11:51:40.376Z,21.17
2022-07-28T11:54:15.875Z,21.18
2022-07-28T11:56:37.333Z,21.14
2022-07-28T11:59:10.027Z,21.33
2022-07-28T12:01:38.609Z,21.53
2022-07-28T12:04:10.520Z,21.61
2022-07-28T12:06:39.592Z,21.82
2022-07-28T12:09:08.913Z,21.86
2022-07-28T12:11:40.101Z,21.95
2022-07-28T12:14:09.811Z,21.99
2022-07-28T12:16:38.543Z,22.19
2022-07-28T12:19:08.481Z,22.11
2022-07-28T12:21:47.873Z,22.26
2022-07-28T12:24:10.345Z,22.33
2022-07-28T12:26:40.691Z,22.18
2022-07-28T12:29:10.921Z,22.09
2022-07-28T12:31:38.205Z,22.10
2022-07-28T12:34:08.782Z,21.98
2022-07-28T12:36:37.944Z,21.88
2022-07-28T12:39:12.725Z,21.83
2022-07-28T12:41:37.612Z,22.10
2022-07-28T12:44:07.884Z,21.97
2022-07-28T12:46:37.533Z,22.10
2022-07-28T12:49:19.306Z,21.96
2022-07-28T12:51:39.414Z,22.17
2022-07-28T12:54:08.928Z,22.21
2022-07-28T12:56:46.273Z,22.24
2022-07-28T12:59:12.057Z,22.16
2022-07-28T13:01:48.201Z,22.11
2022-07-28T13:04:07.269Z,22.03
2022-07-28T13:06:37.458Z,22.10
2022-07-28T13:09:07.716Z,22.00
2022-07-28T13:11:47.086Z,22.17
2022-07-28T13:14:07.405Z,22.32
2022-07-28T13:16:37.418Z,22.44
2022-07-28T13:19:20.755Z,22.63
2022-07-28T13:21:40.235Z,22.77
2022-07-28T13:24:09.082Z,22.98
2022-07-28T13:26:38.041Z,23.20
2022-07-28T13:29:12.572Z,23.35
2022-07-28T13:31:38.071Z,23.59
2022-07-28T13:34:08.875Z,23.81
2022-07-28T13:36:37.751Z,23.39
2022-07-28T13:39:09.755Z,23.23
2022-07-28T13:41:56.754Z,23.38
2022-07-28T13:44:07.301Z,23.54
2022-07-28T13:46:42.496Z,23.56
2022-07-28T13:49:07.296Z,23.53
2022-07-28T13:51:37.520Z,23.52
2022-07-28T13:54:07.247Z,23.51
2022-07-28T13:56:38.913Z,23.53
2022-07-28T13:59:08.749Z,23.57
2022-07-28T14:04:07.620Z,23.56
2022-07-28T14:06:37.285Z,23.42
2022-07-28T14:09:07.373Z,23.51
2022-07-28T14:11:37.417Z,23.30
2022-07-28T14:14:07.333Z,23.45
2022-07-28T14:16:39.457Z,23.53
2022-07-28T14:21:37.275Z,23.52
2022-07-28T14:24:07.994Z,23.58
2022-07-28T14:26:37.258Z,23.61
2022-07-28T14:29:11.273Z,23.52
2022-07-28T14:31:37.709Z,23.48
2022-07-28T14:34:07.299Z,23.57
2022-07-28T14:36:37.685Z,23.55
2022-07-28T14:39:12.121Z,23.52
2022-07-28T14:41:37.738Z,23.57
2022-07-28T14:44:07.302Z,23.58
2022-07-28T14:46:37.376Z,23.42
2022-07-28T14:49:07.634Z,23.53
2022-07-28T14:51:40.462Z,23.63
2022-07-28T14:54:08.132Z,23.54
2022-07-28T14:59:07.447Z,23.55
2022-07-28T15:06:37.501Z,23.57
2022-07-28T15:09:08.409Z,23.54
2022-07-28T15:11:38.761Z,23.56
2022-07-28T15:14:07.310Z,23.46
2022-07-28T15:16:37.722Z,23.33
2022-07-28T15:19:07.529Z,23.34
2022-07-28T15:21:39.617Z,23.43
2022-07-28T15:24:08.522Z,23.46
2022-07-28T15:26:37.316Z,23.50
2022-07-28T15:29:07.767Z,23.59
2022-07-28T15:31:37.453Z,23.72
2022-07-28T15:34:07.299Z,23.81
2022-07-28T15:39:12.802Z,23.67
2022-07-28T15:41:39.786Z,23.76
2022-07-28T15:44:07.743Z,23.69
2022-07-28T15:46:38.132Z,23.65
2022-07-28T15:49:08.787Z,23.67
2022-07-28T15:51:38.797Z,23.62
2022-07-28T15:54:07.885Z,23.52
2022-07-28T15:56:37.686Z,23.53
2022-07-28T15:59:07.392Z,23.52
2022-07-28T16:01:44.879Z,23.48
2022-07-28T16:04:07.386Z,23.51
2022-07-28T16:06:47.237Z,23.43
2022-07-28T16:09:07.775Z,23.30
2022-07-28T16:11:38.992Z,23.25
2022-07-28T16:14:07.628Z,23.20
2022-07-28T16:16:37.651Z,23.19
2022-07-28T16:19:15.912Z,23.03
2022-07-28T16:21:38.349Z,23.02
2022-07-28T16:24:07.758Z,22.81
2022-07-28T16:26:37.319Z,22.73
2022-07-28T16:29:07.387Z,22.65
2022-07-28T16:31:42.036Z,22.56
2022-07-28T16:34:08.509Z,22.54
2022-07-28T16:39:08.450Z,22.48
2022-07-28T16:41:46.660Z,22.42
2022-07-28T16:44:07.546Z,22.38
2022-07-28T16:46:40.212Z,22.26
2022-07-28T16:49:07.607Z,22.16
2022-07-28T16:51:37.531Z,22.11
2022-07-28T16:54:07.395Z,22.06
2022-07-28T16:56:37.437Z,22.03
2022-07-28T16:59:07.484Z,21.97
2022-07-28T17:01:39.846Z,21.89
2022-07-28T17:04:07.663Z,21.87
2022-07-28T17:06:38.160Z,21.74
2022-07-28T17:09:07.560Z,21.62
2022-07-28T17:11:39.782Z,21.60
2022-07-28T17:16:37.440Z,21.57
2022-07-28T17:19:07.523Z,21.54
2022-07-28T17:21:38.877Z,21.42
2022-07-28T17:24:10.114Z,21.39
2022-07-28T17:29:08.777Z,21.20
2022-07-28T17:31:38.087Z,21.21
2022-07-28T17:34:07.442Z,21.15
2022-07-28T17:36:38.419Z,21.08
2022-07-28T17:39:07.439Z,20.98
2022-07-28T17:41:37.928Z,20.96
2022-07-28T17:44:07.375Z,20.90
2022-07-28T17:46:37.663Z,20.86
2022-07-28T17:49:08.087Z,20.79
2022-07-28T17:51:37.346Z,20.74
2022-07-28T17:54:07.866Z,20.68
2022-07-28T17:56:37.392Z,20.64
2022-07-28T17:59:07.622Z,20.60
2022-07-28T18:01:39.966Z,20.58
2022-07-28T18:04:08.478Z,20.50
2022-07-28T18:06:39.244Z,20.52
2022-07-28T18:09:09.502Z,20.39
2022-07-28T18:11:56.442Z,20.37
2022-07-28T18:14:07.572Z,20.29
2022-07-28T18:16:37.465Z,20.32
2022-07-28T18:19:07.366Z,20.23
2022-07-28T18:21:38.184Z,20.22
2022-07-28T18:24:07.563Z,20.21
2022-07-28T18:26:37.643Z,20.12
2022-07-28T18:29:07.594Z,20.08
2022-07-28T18:31:42.549Z,19.99
2022-07-28T18:34:07.436Z,19.96
2022-07-28T18:36:37.578Z,19.93
2022-07-28T18:39:07.627Z,19.83
2022-07-28T18:41:46.597Z,19.77
2022-07-28T18:44:07.461Z,19.75
2022-07-28T18:46:37.572Z,19.66
2022-07-28T18:49:07.586Z,19.56
2022-07-28T18:51:37.625Z,19.50
2022-07-28T18:54:07.376Z,19.53
2022-07-28T18:56:37.406Z,19.47
2022-07-28T18:59:07.504Z,19.35
2022-07-28T19:01:37.749Z,19.34
2022-07-28T19:04:07.598Z,19.32
2022-07-28T19:06:37.440Z,19.27
2022-07-28T19:09:07.596Z,19.20
2022-07-28T19:11:42.368Z,19.18
2022-07-28T19:14:09.104Z,19.11
2022-07-28T19:16:37.560Z,19.07
2022-07-28T19:19:07.717Z,18.98
2022-07-28T19:21:38.078Z,18.91
2022-07-28T19:24:07.475Z,18.82
2022-07-28T19:26:38.049Z,18.74
2022-07-28T19:29:07.527Z,18.64
2022-07-28T19:31:38.635Z,18.61
2022-07-28T19:34:08.014Z,18.62
2022-07-28T19:36:39.365Z,18.55
2022-07-28T19:39:07.554Z,18.47
2022-07-28T19:41:37.590Z,18.45
2022-07-28T19:44:07.648Z,18.40
2022-07-28T19:46:39.403Z,18.36
2022-07-28T19:49:08.159Z,18.27
2022-07-28T19:51:37.827Z,18.24
2022-07-28T19:54:07.642Z,18.22
2022-07-28T19:56:38.553Z,18.17
2022-07-28T19:59:07.474Z,18.13
2022-07-28T20:01:44.259Z,18.06
2022-07-28T20:04:07.908Z,17.96
2022-07-28T20:06:37.466Z,17.98
2022-07-28T20:09:07.416Z,17.94
2022-07-28T20:11:38.065Z,17.92
2022-07-28T20:14:07.542Z,17.90
2022-07-28T20:16:37.639Z,17.87
2022-07-28T20:19:09.673Z,17.80
2022-07-28T20:21:39.292Z,17.81
2022-07-28T20:24:08.002Z,17.78
2022-07-28T20:26:37.461Z,17.75
2022-07-28T20:29:07.521Z,17.72
2022-07-28T20:31:37.658Z,17.69
2022-07-28T20:34:11.275Z,17.60
2022-07-28T20:36:38.033Z,17.62
2022-07-28T20:39:27.497Z,17.58
2022-07-28T20:41:37.608Z,17.51
2022-07-28T20:46:37.514Z,17.49
2022-07-28T20:49:08.026Z,17.46
2022-07-28T20:51:37.626Z,17.47
2022-07-28T20:54:07.547Z,17.48
2022-07-28T20:56:37.456Z,17.43
2022-07-28T20:59:07.540Z,17.38
2022-07-28T21:01:38.188Z,17.43
2022-07-28T21:04:11.245Z,17.40
2022-07-28T21:06:37.936Z,17.39
2022-07-28T21:09:07.525Z,17.36
2022-07-28T21:11:37.490Z,17.33
2022-07-28T21:14:07.488Z,17.32
2022-07-28T21:19:07.815Z,17.28
2022-07-28T21:24:07.964Z,17.25
2022-07-28T21:26:39.985Z,17.23
2022-07-28T21:29:10.614Z,17.19
2022-07-28T21:32:02.072Z,17.15
2022-07-28T21:34:08.383Z,17.08
2022-07-28T21:36:38.484Z,17.09
2022-07-28T21:39:07.555Z,17.06
2022-07-28T21:41:37.853Z,17.08
2022-07-28T21:46:38.718Z,17.09
2022-07-28T21:49:07.555Z,17.02
2022-07-28T21:54:07.763Z,17.03
2022-07-28T21:59:07.494Z,17.01
2022-07-28T22:01:37.518Z,17.02
2022-07-28T22:04:07.643Z,16.96
2022-07-28T22:06:37.701Z,16.92
2022-07-28T22:09:07.674Z,16.95
2022-07-28T22:11:37.680Z,17.00
2022-07-28T22:16:37.714Z,17.01
2022-07-28T22:19:10.767Z,16.95
2022-07-28T22:21:37.542Z,16.96
2022-07-28T22:24:07.877Z,16.89
2022-07-28T22:26:37.473Z,16.92
2022-07-28T22:29:07.491Z,16.85
2022-07-28T22:31:37.814Z,16.91
2022-07-28T22:34:07.632Z,16.90
2022-07-28T22:36:37.894Z,16.88
2022-07-28T22:39:07.545Z,16.81
2022-07-28T22:41:37.488Z,16.86
2022-07-28T22:44:07.720Z,16.87
2022-07-28T22:46:37.830Z,16.88
2022-07-28T22:49:07.714Z,16.80
2022-07-28T22:51:37.642Z,16.72
2022-07-28T22:54:07.678Z,16.79
2022-07-28T22:56:37.809Z,16.80
2022-07-28T22:59:08.315Z,16.77
2022-07-28T23:01:37.811Z,16.79
2022-07-28T23:04:07.693Z,16.80
2022-07-28T23:06:37.565Z,16.81
2022-07-28T23:09:07.778Z,16.75
2022-07-28T23:11:37.628Z,16.77
2022-07-28T23:14:07.783Z,16.78
2022-07-28T23:16:37.707Z,16.76
2022-07-28T23:19:07.556Z,16.74
2022-07-28T23:26:37.757Z,16.72
2022-07-28T23:29:07.912Z,16.69
2022-07-28T23:31:37.756Z,16.75
2022-07-28T23:34:07.745Z,16.76
2022-07-28T23:36:37.738Z,16.75
2022-07-28T23:39:07.725Z,16.69
2022-07-28T23:41:37.688Z,16.64
2022-07-28T23:44:07.677Z,16.67
2022-07-28T23:46:37.633Z,16.68
2022-07-28T23:49:07.693Z,16.64
2022-07-28T23:51:47.232Z,16.68
2022-07-28T23:54:07.703Z,16.71
2022-07-28T23:59:11.777Z,16.68
